sensor_id;sensor_type;location;lat;lon;timestamp;temperature;humidity
67722;SHT31;58309;45.292;11.820;2023-12-14T00:02:14;5.68;99.99
67722;SHT31;58309;45.292;11.820;2023-12-14T00:04:40;5.65;99.99
67722;SHT31;58309;45.292;11.820;2023-12-14T00:07:05;5.69;99.99
67722;SHT31;58309;45.292;11.820;2023-12-14T00:09:31;5.65;99.99
67722;SHT31;58309;45.292;11.820;2023-12-14T00:11:56;5.64;99.99
67722;SHT31;58309;45.292;11.820;2023-12-14T00:14:21;5.65;99.99
67722;SHT31;58309;45.292;11.820;2023-12-14T00:16:47;5.69;99.99
67722;SHT31;58309;45.292;11.820;2023-12-14T00:19:12;5.68;99.99
67722;SHT31;58309;45.292;11.820;2023-12-14T00:21:37;5.68;99.99
67722;SHT31;58309;45.292;11.820;2023-12-14T00:24:03;5.65;99.99
67722;SHT31;58309;45.292;11.820;2023-12-14T00:26:28;5.59;99.99
67722;SHT31;58309;45.292;11.820;2023-12-14T00:28:53;5.55;99.99
67722;SHT31;58309;45.292;11.820;2023-12-14T00:31:19;5.51;99.99
67722;SHT31;58309;45.292;11.820;2023-12-14T00:33:44;5.50;99.99
67722;SHT31;58309;45.292;11.820;2023-12-14T00:36:10;5.44;99.99
67722;SHT31;58309;45.292;11.820;2023-12-14T00:38:35;5.37;99.99
67722;SHT31;58309;45.292;11.820;2023-12-14T00:41:00;5.27;99.99
67722;SHT31;58309;45.292;11.820;2023-12-14T00:43:26;5.20;99.99
67722;SHT31;58309;45.292;11.820;2023-12-14T00:45:51;5.15;99.99
67722;SHT31;58309;45.292;11.820;2023-12-14T00:48:17;5.12;99.99
67722;SHT31;58309;45.292;11.820;2023-12-14T00:50:42;5.03;99.99
67722;SHT31;58309;45.292;11.820;2023-12-14T00:53:08;4.95;99.99
67722;SHT31;58309;45.292;11.820;2023-12-14T00:55:33;4.83;99.99
67722;SHT31;58309;45.292;11.820;2023-12-14T00:57:58;4.71;99.99
67722;SHT31;58309;45.292;11.820;2023-12-14T01:00:24;4.62;99.99
67722;SHT31;58309;45.292;11.820;2023-12-14T01:02:49;4.58;99.99
67722;SHT31;58309;45.292;11.820;2023-12-14T01:05:15;4.52;99.99
67722;SHT31;58309;45.292;11.820;2023-12-14T01:07:40;4.45;99.99
67722;SHT31;58309;45.292;11.820;2023-12-14T01:10:06;4.48;99.99
67722;SHT31;58309;45.292;11.820;2023-12-14T01:12:36;4.37;99.99
67722;SHT31;58309;45.292;11.820;2023-12-14T01:15:01;4.34;99.99
67722;SHT31;58309;45.292;11.820;2023-12-14T01:17:27;4.24;99.99
67722;SHT31;58309;45.292;11.820;2023-12-14T01:19:54;4.14;99.99
67722;SHT31;58309;45.292;11.820;2023-12-14T01:22:19;4.06;99.99
67722;SHT31;58309;45.292;11.820;2023-12-14T01:24:44;3.98;99.99
67722;SHT31;58309;45.292;11.820;2023-12-14T01:27:10;3.93;99.99
67722;SHT31;58309;45.292;11.820;2023-12-14T01:29:38;3.90;99.99
67722;SHT31;58309;45.292;11.820;2023-12-14T01:32:04;3.94;99.99
67722;SHT31;58309;45.292;11.820;2023-12-14T01:34:29;3.91;99.99
67722;SHT31;58309;45.292;11.820;2023-12-14T01:36:55;3.89;99.99
67722;SHT31;58309;45.292;11.820;2023-12-14T01:39:20;3.87;99.99
67722;SHT31;58309;45.292;11.820;2023-12-14T01:41:45;3.93;99.99
67722;SHT31;58309;45.292;11.820;2023-12-14T01:44:11;3.96;99.99
67722;SHT31;58309;45.292;11.820;2023-12-14T01:46:36;3.96;99.99
67722;SHT31;58309;45.292;11.820;2023-12-14T01:49:01;3.98;99.99
67722;SHT31;58309;45.292;11.820;2023-12-14T01:51:27;4.00;99.99
67722;SHT31;58309;45.292;11.820;2023-12-14T01:53:52;4.03;99.99
67722;SHT31;58309;45.292;11.820;2023-12-14T01:56:17;4.08;99.99
67722;SHT31;58309;45.292;11.820;2023-12-14T01:58:43;4.20;99.99
67722;SHT31;58309;45.292;11.820;2023-12-14T02:01:18;4.24;99.99
67722;SHT31;58309;45.292;11.820;2023-12-14T02:03:45;4.28;99.99
67722;SHT31;58309;45.292;11.820;2023-12-14T02:06:11;4.33;99.99
67722;SHT31;58309;45.292;11.820;2023-12-14T02:08:36;4.38;99.99
67722;SHT31;58309;45.292;11.820;2023-12-14T02:11:01;4.47;99.99
67722;SHT31;58309;45.292;11.820;2023-12-14T02:13:27;4.49;99.99
67722;SHT31;58309;45.292;11.820;2023-12-14T02:15:52;4.55;99.99
67722;SHT31;58309;45.292;11.820;2023-12-14T02:18:18;4.52;99.99
67722;SHT31;58309;45.292;11.820;2023-12-14T02:20:44;4.52;99.99
67722;SHT31;58309;45.292;11.820;2023-12-14T02:23:09;4.54;99.99
67722;SHT31;58309;45.292;11.820;2023-12-14T02:25:34;4.55;99.99
67722;SHT31;58309;45.292;11.820;2023-12-14T02:28:00;4.58;99.99
67722;SHT31;58309;45.292;11.820;2023-12-14T02:30:25;4.65;99.99
67722;SHT31;58309;45.292;11.820;2023-12-14T02:32:51;4.68;99.99
67722;SHT31;58309;45.292;11.820;2023-12-14T02:35:16;4.72;99.99
67722;SHT31;58309;45.292;11.820;2023-12-14T02:37:43;4.73;99.99
67722;SHT31;58309;45.292;11.820;2023-12-14T02:40:09;4.76;99.99
67722;SHT31;58309;45.292;11.820;2023-12-14T02:42:34;4.80;99.99
67722;SHT31;58309;45.292;11.820;2023-12-14T02:45:00;4.86;99.99
67722;SHT31;58309;45.292;11.820;2023-12-14T02:47:27;4.89;99.99
67722;SHT31;58309;45.292;11.820;2023-12-14T02:49:52;4.89;99.99
67722;SHT31;58309;45.292;11.820;2023-12-14T02:52:17;4.89;99.99
67722;SHT31;58309;45.292;11.820;2023-12-14T02:54:43;4.90;99.99
67722;SHT31;58309;45.292;11.820;2023-12-14T02:57:08;4.90;99.99
67722;SHT31;58309;45.292;11.820;2023-12-14T02:59:33;4.93;99.99
67722;SHT31;58309;45.292;11.820;2023-12-14T03:01:59;4.96;99.99
67722;SHT31;58309;45.292;11.820;2023-12-14T03:04:25;4.97;99.99
67722;SHT31;58309;45.292;11.820;2023-12-14T03:06:50;4.99;99.99
67722;SHT31;58309;45.292;11.820;2023-12-14T03:09:15;5.01;99.99
67722;SHT31;58309;45.292;11.820;2023-12-14T03:11:41;5.06;99.99
67722;SHT31;58309;45.292;11.820;2023-12-14T03:14:06;5.07;99.99
67722;SHT31;58309;45.292;11.820;2023-12-14T03:16:31;5.12;99.99
67722;SHT31;58309;45.292;11.820;2023-12-14T03:18:57;5.12;99.99
67722;SHT31;58309;45.292;11.820;2023-12-14T03:21:23;5.17;99.99
67722;SHT31;58309;45.292;11.820;2023-12-14T03:23:49;5.23;99.99
67722;SHT31;58309;45.292;11.820;2023-12-14T03:26:14;5.26;99.99
67722;SHT31;58309;45.292;11.820;2023-12-14T03:28:39;5.33;99.99
67722;SHT31;58309;45.292;11.820;2023-12-14T03:31:05;5.38;99.99
67722;SHT31;58309;45.292;11.820;2023-12-14T03:33:30;5.38;99.99
67722;SHT31;58309;45.292;11.820;2023-12-14T03:35:55;5.41;99.99
67722;SHT31;58309;45.292;11.820;2023-12-14T03:38:21;5.37;99.99
67722;SHT31;58309;45.292;11.820;2023-12-14T03:40:46;5.27;99.99
67722;SHT31;58309;45.292;11.820;2023-12-14T03:43:11;5.16;99.99
67722;SHT31;58309;45.292;11.820;2023-12-14T03:45:37;5.03;99.99
67722;SHT31;58309;45.292;11.820;2023-12-14T03:48:02;4.95;99.99
67722;SHT31;58309;45.292;11.820;2023-12-14T03:50:27;4.90;99.99
67722;SHT31;58309;45.292;11.820;2023-12-14T03:52:54;4.86;99.99
67722;SHT31;58309;45.292;11.820;2023-12-14T03:55:19;4.86;99.99
67722;SHT31;58309;45.292;11.820;2023-12-14T03:57:44;4.89;99.99
67722;SHT31;58309;45.292;11.820;2023-12-14T04:00:11;4.93;99.99
67722;SHT31;58309;45.292;11.820;2023-12-14T04:02:36;4.99;99.99
67722;SHT31;58309;45.292;11.820;2023-12-14T04:05:02;4.99;99.99
67722;SHT31;58309;45.292;11.820;2023-12-14T04:07:27;5.01;99.99
67722;SHT31;58309;45.292;11.820;2023-12-14T04:09:52;5.01;99.99
67722;SHT31;58309;45.292;11.820;2023-12-14T04:12:18;5.05;99.99
67722;SHT31;58309;45.292;11.820;2023-12-14T04:14:43;5.05;99.99
67722;SHT31;58309;45.292;11.820;2023-12-14T04:17:10;5.01;99.99
67722;SHT31;58309;45.292;11.820;2023-12-14T04:19:35;4.99;99.99
67722;SHT31;58309;45.292;11.820;2023-12-14T04:22:00;4.93;99.99
67722;SHT31;58309;45.292;11.820;2023-12-14T04:24:26;4.85;99.99
67722;SHT31;58309;45.292;11.820;2023-12-14T04:26:51;4.80;99.99
67722;SHT31;58309;45.292;11.820;2023-12-14T04:29:16;4.79;99.99
67722;SHT31;58309;45.292;11.820;2023-12-14T04:31:42;4.72;99.99
67722;SHT31;58309;45.292;11.820;2023-12-14T04:34:10;4.64;99.99
67722;SHT31;58309;45.292;11.820;2023-12-14T04:36:40;4.62;99.99
67722;SHT31;58309;45.292;11.820;2023-12-14T04:39:05;4.58;99.99
67722;SHT31;58309;45.292;11.820;2023-12-14T04:41:30;4.55;99.99
67722;SHT31;58309;45.292;11.820;2023-12-14T04:43:56;4.48;99.99
67722;SHT31;58309;45.292;11.820;2023-12-14T04:46:21;4.33;99.99
67722;SHT31;58309;45.292;11.820;2023-12-14T04:48:47;4.21;99.99
67722;SHT31;58309;45.292;11.820;2023-12-14T04:51:12;4.21;99.99
67722;SHT31;58309;45.292;11.820;2023-12-14T04:53:38;4.20;99.99
67722;SHT31;58309;45.292;11.820;2023-12-14T04:56:04;4.20;99.99
67722;SHT31;58309;45.292;11.820;2023-12-14T04:58:29;4.16;99.99
67722;SHT31;58309;45.292;11.820;2023-12-14T05:00:54;4.10;99.99
67722;SHT31;58309;45.292;11.820;2023-12-14T05:03:20;4.06;99.99
67722;SHT31;58309;45.292;11.820;2023-12-14T05:05:45;4.00;99.99
67722;SHT31;58309;45.292;11.820;2023-12-14T05:08:10;3.96;99.99
67722;SHT31;58309;45.292;11.820;2023-12-14T05:10:36;3.97;99.99
67722;SHT31;58309;45.292;11.820;2023-12-14T05:13:01;3.93;99.99
67722;SHT31;58309;45.292;11.820;2023-12-14T05:15:26;3.94;99.99
67722;SHT31;58309;45.292;11.820;2023-12-14T05:17:52;3.96;99.99
67722;SHT31;58309;45.292;11.820;2023-12-14T05:20:17;3.97;99.99
67722;SHT31;58309;45.292;11.820;2023-12-14T05:22:42;3.96;99.99
67722;SHT31;58309;45.292;11.820;2023-12-14T05:25:08;3.93;99.99
67722;SHT31;58309;45.292;11.820;2023-12-14T05:27:34;3.96;99.99
67722;SHT31;58309;45.292;11.820;2023-12-14T05:29:59;4.03;99.99
67722;SHT31;58309;45.292;11.820;2023-12-14T05:32:25;4.00;99.99
67722;SHT31;58309;45.292;11.820;2023-12-14T05:34:50;4.00;99.99
67722;SHT31;58309;45.292;11.820;2023-12-14T05:37:15;4.01;99.99
67722;SHT31;58309;45.292;11.820;2023-12-14T05:39:41;4.03;99.99
67722;SHT31;58309;45.292;11.820;2023-12-14T05:42:07;4.00;99.99
67722;SHT31;58309;45.292;11.820;2023-12-14T05:44:32;3.98;99.99
67722;SHT31;58309;45.292;11.820;2023-12-14T05:46:58;4.08;99.99
67722;SHT31;58309;45.292;11.820;2023-12-14T05:49:23;4.14;99.99
67722;SHT31;58309;45.292;11.820;2023-12-14T05:51:48;4.18;99.99
67722;SHT31;58309;45.292;11.820;2023-12-14T05:54:14;4.22;99.99
67722;SHT31;58309;45.292;11.820;2023-12-14T05:56:39;4.25;99.99
67722;SHT31;58309;45.292;11.820;2023-12-14T05:59:04;4.34;99.99
67722;SHT31;58309;45.292;11.820;2023-12-14T06:01:30;4.34;99.99
67722;SHT31;58309;45.292;11.820;2023-12-14T06:03:55;4.35;99.99
67722;SHT31;58309;45.292;11.820;2023-12-14T06:06:20;4.40;99.99
67722;SHT31;58309;45.292;11.820;2023-12-14T06:08:46;4.41;99.99
67722;SHT31;58309;45.292;11.820;2023-12-14T06:11:11;4.41;99.99
67722;SHT31;58309;45.292;11.820;2023-12-14T06:13:37;4.41;99.99
67722;SHT31;58309;45.292;11.820;2023-12-14T06:16:03;4.41;99.99
67722;SHT31;58309;45.292;11.820;2023-12-14T06:18:28;4.45;99.99
67722;SHT31;58309;45.292;11.820;2023-12-14T06:20:53;4.42;99.99
67722;SHT31;58309;45.292;11.820;2023-12-14T06:23:19;4.41;99.99
67722;SHT31;58309;45.292;11.820;2023-12-14T06:25:44;4.38;99.99
67722;SHT31;58309;45.292;11.820;2023-12-14T06:28:09;4.37;99.99
67722;SHT31;58309;45.292;11.820;2023-12-14T06:30:35;4.38;99.99
67722;SHT31;58309;45.292;11.820;2023-12-14T06:33:00;4.35;99.99
67722;SHT31;58309;45.292;11.820;2023-12-14T06:35:25;4.34;99.99
67722;SHT31;58309;45.292;11.820;2023-12-14T06:37:51;4.37;99.99
67722;SHT31;58309;45.292;11.820;2023-12-14T06:40:16;4.41;99.99
67722;SHT31;58309;45.292;11.820;2023-12-14T06:42:41;4.44;99.99
67722;SHT31;58309;45.292;11.820;2023-12-14T06:45:07;4.45;99.99
67722;SHT31;58309;45.292;11.820;2023-12-14T06:47:33;4.48;99.99
67722;SHT31;58309;45.292;11.820;2023-12-14T06:49:58;4.49;99.99
67722;SHT31;58309;45.292;11.820;2023-12-14T06:52:23;4.55;99.99
67722;SHT31;58309;45.292;11.820;2023-12-14T06:54:49;4.59;99.99
67722;SHT31;58309;45.292;11.820;2023-12-14T06:57:14;4.61;99.99
67722;SHT31;58309;45.292;11.820;2023-12-14T06:59:39;4.64;99.99
67722;SHT31;58309;45.292;11.820;2023-12-14T07:02:05;4.68;99.99
67722;SHT31;58309;45.292;11.820;2023-12-14T07:04:31;4.76;99.99
67722;SHT31;58309;45.292;11.820;2023-12-14T07:06:56;4.85;99.99
67722;SHT31;58309;45.292;11.820;2023-12-14T07:09:21;4.90;99.99
67722;SHT31;58309;45.292;11.820;2023-12-14T07:11:47;4.95;99.99
67722;SHT31;58309;45.292;11.820;2023-12-14T07:14:12;4.99;99.99
67722;SHT31;58309;45.292;11.820;2023-12-14T07:16:39;5.05;99.99
67722;SHT31;58309;45.292;11.820;2023-12-14T07:19:05;5.10;99.99
67722;SHT31;58309;45.292;11.820;2023-12-14T07:21:30;5.12;99.99
67722;SHT31;58309;45.292;11.820;2023-12-14T07:23:55;5.22;99.99
67722;SHT31;58309;45.292;11.820;2023-12-14T07:26:21;5.28;99.99
67722;SHT31;58309;45.292;11.820;2023-12-14T07:28:46;5.37;99.99
67722;SHT31;58309;45.292;11.820;2023-12-14T07:31:12;5.46;99.99
67722;SHT31;58309;45.292;11.820;2023-12-14T07:33:37;5.55;99.99
67722;SHT31;58309;45.292;11.820;2023-12-14T07:36:03;5.67;99.99
67722;SHT31;58309;45.292;11.820;2023-12-14T07:38:30;5.69;99.99
67722;SHT31;58309;45.292;11.820;2023-12-14T07:40:55;5.62;99.99
67722;SHT31;58309;45.292;11.820;2023-12-14T07:43:21;5.40;99.99
67722;SHT31;58309;45.292;11.820;2023-12-14T07:45:47;5.30;99.99
67722;SHT31;58309;45.292;11.820;2023-12-14T07:48:12;5.31;99.99
67722;SHT31;58309;45.292;11.820;2023-12-14T07:50:37;5.22;99.99
67722;SHT31;58309;45.292;11.820;2023-12-14T07:53:03;5.16;99.99
67722;SHT31;58309;45.292;11.820;2023-12-14T07:55:29;5.10;99.99
67722;SHT31;58309;45.292;11.820;2023-12-14T07:57:55;4.99;99.99
67722;SHT31;58309;45.292;11.820;2023-12-14T08:00:20;4.86;99.99
67722;SHT31;58309;45.292;11.820;2023-12-14T08:02:45;4.86;99.99
67722;SHT31;58309;45.292;11.820;2023-12-14T08:05:11;5.07;99.99
67722;SHT31;58309;45.292;11.820;2023-12-14T08:07:36;5.23;99.99
67722;SHT31;58309;45.292;11.820;2023-12-14T08:10:02;5.34;99.99
67722;SHT31;58309;45.292;11.820;2023-12-14T08:12:28;5.33;99.99
67722;SHT31;58309;45.292;11.820;2023-12-14T08:14:53;5.40;99.99
67722;SHT31;58309;45.292;11.820;2023-12-14T08:17:19;5.30;99.99
67722;SHT31;58309;45.292;11.820;2023-12-14T08:19:45;5.27;99.99
67722;SHT31;58309;45.292;11.820;2023-12-14T08:22:11;5.40;99.99
67722;SHT31;58309;45.292;11.820;2023-12-14T08:24:40;5.44;99.99
67722;SHT31;58309;45.292;11.820;2023-12-14T08:27:06;5.64;99.99
67722;SHT31;58309;45.292;11.820;2023-12-14T08:29:31;5.54;99.99
67722;SHT31;58309;45.292;11.820;2023-12-14T08:31:56;5.50;99.99
67722;SHT31;58309;45.292;11.820;2023-12-14T08:34:24;5.48;99.99
67722;SHT31;58309;45.292;11.820;2023-12-14T08:36:49;5.43;99.99
67722;SHT31;58309;45.292;11.820;2023-12-14T08:39:15;5.44;99.99
67722;SHT31;58309;45.292;11.820;2023-12-14T08:41:40;5.52;99.99
67722;SHT31;58309;45.292;11.820;2023-12-14T08:44:06;5.62;99.99
67722;SHT31;58309;45.292;11.820;2023-12-14T08:46:41;5.61;99.99
67722;SHT31;58309;45.292;11.820;2023-12-14T08:49:06;5.62;99.99
67722;SHT31;58309;45.292;11.820;2023-12-14T08:51:32;5.43;99.99
67722;SHT31;58309;45.292;11.820;2023-12-14T08:53:57;5.52;99.99
67722;SHT31;58309;45.292;11.820;2023-12-14T08:56:22;5.75;99.99
67722;SHT31;58309;45.292;11.820;2023-12-14T08:58:48;5.77;99.99
67722;SHT31;58309;45.292;11.820;2023-12-14T09:01:19;5.87;99.99
67722;SHT31;58309;45.292;11.820;2023-12-14T09:03:44;6.03;99.99
67722;SHT31;58309;45.292;11.820;2023-12-14T09:06:09;6.15;99.99
67722;SHT31;58309;45.292;11.820;2023-12-14T09:08:35;6.22;99.99
67722;SHT31;58309;45.292;11.820;2023-12-14T09:11:00;6.33;99.99
67722;SHT31;58309;45.292;11.820;2023-12-14T09:13:25;6.49;99.99
67722;SHT31;58309;45.292;11.820;2023-12-14T09:15:51;6.78;99.99
67722;SHT31;58309;45.292;11.820;2023-12-14T09:18:18;6.97;99.99
67722;SHT31;58309;45.292;11.820;2023-12-14T09:20:45;7.19;99.99
67722;SHT31;58309;45.292;11.820;2023-12-14T09:23:10;7.43;99.99
67722;SHT31;58309;45.292;11.820;2023-12-14T09:25:36;7.59;99.99
67722;SHT31;58309;45.292;11.820;2023-12-14T09:28:01;7.62;99.99
67722;SHT31;58309;45.292;11.820;2023-12-14T09:30:26;7.66;99.99
67722;SHT31;58309;45.292;11.820;2023-12-14T09:32:52;7.67;99.99
67722;SHT31;58309;45.292;11.820;2023-12-14T09:35:17;7.59;99.99
67722;SHT31;58309;45.292;11.820;2023-12-14T09:37:43;7.76;99.99
67722;SHT31;58309;45.292;11.820;2023-12-14T09:40:08;7.62;99.99
67722;SHT31;58309;45.292;11.820;2023-12-14T09:42:36;7.79;99.99
67722;SHT31;58309;45.292;11.820;2023-12-14T09:45:02;7.95;99.99
67722;SHT31;58309;45.292;11.820;2023-12-14T09:47:27;8.08;99.99
67722;SHT31;58309;45.292;11.820;2023-12-14T09:49:53;8.08;99.99
67722;SHT31;58309;45.292;11.820;2023-12-14T09:52:18;7.97;99.99
67722;SHT31;58309;45.292;11.820;2023-12-14T09:54:43;7.93;99.99
67722;SHT31;58309;45.292;11.820;2023-12-14T09:57:09;8.01;99.99
67722;SHT31;58309;45.292;11.820;2023-12-14T09:59:34;8.12;99.99
67722;SHT31;58309;45.292;11.820;2023-12-14T10:02:09;8.21;99.99
67722;SHT31;58309;45.292;11.820;2023-12-14T10:04:35;8.39;99.99
67722;SHT31;58309;45.292;11.820;2023-12-14T10:07:01;8.49;99.99
67722;SHT31;58309;45.292;11.820;2023-12-14T10:09:31;8.45;99.99
67722;SHT31;58309;45.292;11.820;2023-12-14T10:12:04;8.48;99.99
67722;SHT31;58309;45.292;11.820;2023-12-14T10:14:30;8.45;99.99
67722;SHT31;58309;45.292;11.820;2023-12-14T10:16:55;8.42;99.99
67722;SHT31;58309;45.292;11.820;2023-12-14T10:19:21;8.55;99.99
67722;SHT31;58309;45.292;11.820;2023-12-14T10:21:47;8.56;99.99
67722;SHT31;58309;45.292;11.820;2023-12-14T10:24:12;8.65;99.99
67722;SHT31;58309;45.292;11.820;2023-12-14T10:26:38;8.80;99.99
67722;SHT31;58309;45.292;11.820;2023-12-14T10:29:03;8.76;99.99
67722;SHT31;58309;45.292;11.820;2023-12-14T10:31:32;8.65;99.99
67722;SHT31;58309;45.292;11.820;2023-12-14T10:34:03;8.31;99.99
67722;SHT31;58309;45.292;11.820;2023-12-14T10:36:28;8.37;99.99
67722;SHT31;58309;45.292;11.820;2023-12-14T10:38:54;8.44;99.99
67722;SHT31;58309;45.292;11.820;2023-12-14T10:41:21;8.41;99.99
67722;SHT31;58309;45.292;11.820;2023-12-14T10:43:48;8.21;99.99
67722;SHT31;58309;45.292;11.820;2023-12-14T10:46:15;8.02;99.99
67722;SHT31;58309;45.292;11.820;2023-12-14T10:48:40;7.80;99.99
67722;SHT31;58309;45.292;11.820;2023-12-14T10:51:09;7.67;99.99
67722;SHT31;58309;45.292;11.820;2023-12-14T10:53:35;7.71;99.99
67722;SHT31;58309;45.292;11.820;2023-12-14T10:56:01;7.71;99.99
67722;SHT31;58309;45.292;11.820;2023-12-14T10:58:31;7.77;99.99
67722;SHT31;58309;45.292;11.820;2023-12-14T11:01:11;7.87;99.99
67722;SHT31;58309;45.292;11.820;2023-12-14T11:03:39;8.14;99.99
67722;SHT31;58309;45.292;11.820;2023-12-14T11:06:15;8.37;99.99
67722;SHT31;58309;45.292;11.820;2023-12-14T11:08:41;8.65;99.99
67722;SHT31;58309;45.292;11.820;2023-12-14T11:11:06;8.86;99.99
67722;SHT31;58309;45.292;11.820;2023-12-14T11:13:36;8.90;99.99
67722;SHT31;58309;45.292;11.820;2023-12-14T11:16:03;8.84;99.99
67722;SHT31;58309;45.292;11.820;2023-12-14T11:18:29;8.77;99.99
67722;SHT31;58309;45.292;11.820;2023-12-14T11:20:55;8.77;99.99
67722;SHT31;58309;45.292;11.820;2023-12-14T11:25:51;8.77;99.99
67722;SHT31;58309;45.292;11.820;2023-12-14T11:28:16;8.73;99.99
67722;SHT31;58309;45.292;11.820;2023-12-14T11:30:43;8.70;99.99
67722;SHT31;58309;45.292;11.820;2023-12-14T11:33:08;8.73;99.99
67722;SHT31;58309;45.292;11.820;2023-12-14T11:35:35;8.86;99.99
67722;SHT31;58309;45.292;11.820;2023-12-14T11:38:01;9.16;99.99
67722;SHT31;58309;45.292;11.820;2023-12-14T11:40:28;9.30;99.99
67722;SHT31;58309;45.292;11.820;2023-12-14T11:43:03;9.42;99.99
67722;SHT31;58309;45.292;11.820;2023-12-14T11:45:33;9.55;99.99
67722;SHT31;58309;45.292;11.820;2023-12-14T11:47:58;9.91;99.99
67722;SHT31;58309;45.292;11.820;2023-12-14T11:50:24;9.92;99.99
67722;SHT31;58309;45.292;11.820;2023-12-14T11:52:49;9.82;99.99
67722;SHT31;58309;45.292;11.820;2023-12-14T11:55:14;9.65;99.99
67722;SHT31;58309;45.292;11.820;2023-12-14T11:57:45;9.59;99.99
67722;SHT31;58309;45.292;11.820;2023-12-14T12:00:11;9.38;99.99
67722;SHT31;58309;45.292;11.820;2023-12-14T12:02:36;9.57;99.99
67722;SHT31;58309;45.292;11.820;2023-12-14T12:05:02;9.57;99.99
67722;SHT31;58309;45.292;11.820;2023-12-14T12:07:28;9.65;99.99
67722;SHT31;58309;45.292;11.820;2023-12-14T12:09:53;9.59;99.99
67722;SHT31;58309;45.292;11.820;2023-12-14T12:12:18;9.70;99.99
67722;SHT31;58309;45.292;11.820;2023-12-14T12:14:44;9.47;99.99
67722;SHT31;58309;45.292;11.820;2023-12-14T12:17:09;9.42;99.99
67722;SHT31;58309;45.292;11.820;2023-12-14T12:19:36;9.55;99.99
67722;SHT31;58309;45.292;11.820;2023-12-14T12:22:02;9.48;99.99
67722;SHT31;58309;45.292;11.820;2023-12-14T12:24:27;9.54;99.99
67722;SHT31;58309;45.292;11.820;2023-12-14T12:26:53;9.70;99.99
67722;SHT31;58309;45.292;11.820;2023-12-14T12:29:19;9.72;99.99
67722;SHT31;58309;45.292;11.820;2023-12-14T12:31:44;9.83;99.99
67722;SHT31;58309;45.292;11.820;2023-12-14T12:34:10;9.95;99.99
67722;SHT31;58309;45.292;11.820;2023-12-14T12:36:36;9.95;99.99
67722;SHT31;58309;45.292;11.820;2023-12-14T12:39:01;9.89;99.99
67722;SHT31;58309;45.292;11.820;2023-12-14T12:41:28;9.91;99.99
67722;SHT31;58309;45.292;11.820;2023-12-14T12:43:53;9.92;99.99
67722;SHT31;58309;45.292;11.820;2023-12-14T12:46:19;10.06;99.99
67722;SHT31;58309;45.292;11.820;2023-12-14T12:48:44;10.02;99.99
67722;SHT31;58309;45.292;11.820;2023-12-14T12:51:12;10.10;99.99
67722;SHT31;58309;45.292;11.820;2023-12-14T12:53:37;10.09;99.99
67722;SHT31;58309;45.292;11.820;2023-12-14T12:56:03;9.99;99.99
67722;SHT31;58309;45.292;11.820;2023-12-14T12:58:28;9.96;99.99
67722;SHT31;58309;45.292;11.820;2023-12-14T13:00:53;10.02;99.99
67722;SHT31;58309;45.292;11.820;2023-12-14T13:03:19;10.03;99.99
67722;SHT31;58309;45.292;11.820;2023-12-14T13:05:44;10.09;99.99
67722;SHT31;58309;45.292;11.820;2023-12-14T13:08:09;10.10;99.99
67722;SHT31;58309;45.292;11.820;2023-12-14T13:10:35;10.13;99.99
67722;SHT31;58309;45.292;11.820;2023-12-14T13:13:02;10.01;99.99
67722;SHT31;58309;45.292;11.820;2023-12-14T13:15:27;9.88;99.99
67722;SHT31;58309;45.292;11.820;2023-12-14T13:17:54;9.83;99.99
67722;SHT31;58309;45.292;11.820;2023-12-14T13:20:19;9.85;99.99
67722;SHT31;58309;45.292;11.820;2023-12-14T13:22:44;9.92;99.99
67722;SHT31;58309;45.292;11.820;2023-12-14T13:25:10;9.96;99.99
67722;SHT31;58309;45.292;11.820;2023-12-14T13:27:35;10.08;99.99
67722;SHT31;58309;45.292;11.820;2023-12-14T13:30:01;10.05;99.99
67722;SHT31;58309;45.292;11.820;2023-12-14T13:32:27;9.95;99.99
67722;SHT31;58309;45.292;11.820;2023-12-14T13:34:52;9.85;99.99
67722;SHT31;58309;45.292;11.820;2023-12-14T13:37:18;9.79;99.99
67722;SHT31;58309;45.292;11.820;2023-12-14T13:39:43;9.74;99.99
67722;SHT31;58309;45.292;11.820;2023-12-14T13:42:08;9.71;99.99
67722;SHT31;58309;45.292;11.820;2023-12-14T13:44:34;9.70;99.99
67722;SHT31;58309;45.292;11.820;2023-12-14T13:47:05;9.67;99.99
67722;SHT31;58309;45.292;11.820;2023-12-14T13:49:30;9.64;99.99
67722;SHT31;58309;45.292;11.820;2023-12-14T13:51:56;9.62;99.99
67722;SHT31;58309;45.292;11.820;2023-12-14T13:54:22;9.57;99.99
67722;SHT31;58309;45.292;11.820;2023-12-14T13:56:48;9.54;99.99
67722;SHT31;58309;45.292;11.820;2023-12-14T13:59:13;9.44;99.99
67722;SHT31;58309;45.292;11.820;2023-12-14T14:01:38;9.38;99.99
67722;SHT31;58309;45.292;11.820;2023-12-14T14:04:04;9.27;99.99
67722;SHT31;58309;45.292;11.820;2023-12-14T14:06:29;9.16;99.99
67722;SHT31;58309;45.292;11.820;2023-12-14T14:08:55;9.10;99.99
67722;SHT31;58309;45.292;11.820;2023-12-14T14:11:20;9.04;99.99
67722;SHT31;58309;45.292;11.820;2023-12-14T14:13:46;8.97;99.99
67722;SHT31;58309;45.292;11.820;2023-12-14T14:16:11;8.92;99.99
67722;SHT31;58309;45.292;11.820;2023-12-14T14:18:36;8.86;99.99
67722;SHT31;58309;45.292;11.820;2023-12-14T14:21:02;8.79;99.99
67722;SHT31;58309;45.292;11.820;2023-12-14T14:23:27;8.65;99.99
67722;SHT31;58309;45.292;11.820;2023-12-14T14:25:53;8.59;99.99
67722;SHT31;58309;45.292;11.820;2023-12-14T14:28:21;8.39;99.99
67722;SHT31;58309;45.292;11.820;2023-12-14T14:30:47;8.25;99.99
67722;SHT31;58309;45.292;11.820;2023-12-14T14:33:13;8.17;99.99
67722;SHT31;58309;45.292;11.820;2023-12-14T14:35:43;8.12;99.99
67722;SHT31;58309;45.292;11.820;2023-12-14T14:38:08;8.07;99.99
67722;SHT31;58309;45.292;11.820;2023-12-14T14:40:33;8.04;99.99
67722;SHT31;58309;45.292;11.820;2023-12-14T14:42:58;7.91;99.99
67722;SHT31;58309;45.292;11.820;2023-12-14T14:45:24;7.86;99.99
67722;SHT31;58309;45.292;11.820;2023-12-14T14:47:49;7.80;99.99
67722;SHT31;58309;45.292;11.820;2023-12-14T14:50:14;7.73;99.99
67722;SHT31;58309;45.292;11.820;2023-12-14T14:52:40;7.66;99.99
67722;SHT31;58309;45.292;11.820;2023-12-14T14:55:05;7.58;99.99
67722;SHT31;58309;45.292;11.820;2023-12-14T14:57:31;7.56;99.99
67722;SHT31;58309;45.292;11.820;2023-12-14T14:59:58;7.49;99.99
67722;SHT31;58309;45.292;11.820;2023-12-14T15:02:24;7.45;99.99
67722;SHT31;58309;45.292;11.820;2023-12-14T15:04:50;7.38;99.99
67722;SHT31;58309;45.292;11.820;2023-12-14T15:07:16;7.32;99.99
67722;SHT31;58309;45.292;11.820;2023-12-14T15:09:41;7.16;99.99
67722;SHT31;58309;45.292;11.820;2023-12-14T15:12:06;7.08;99.99
67722;SHT31;58309;45.292;11.820;2023-12-14T15:14:32;7.04;99.99
67722;SHT31;58309;45.292;11.820;2023-12-14T15:16:57;6.97;99.99
67722;SHT31;58309;45.292;11.820;2023-12-14T15:19:23;6.91;99.99
67722;SHT31;58309;45.292;11.820;2023-12-14T15:21:48;6.87;99.99
67722;SHT31;58309;45.292;11.820;2023-12-14T15:24:13;6.84;99.99